Time;durP1;ratioP1;P1;durP2;ratioP2;P2;SDS_P1;SDS_P2;PMS_P1;PMS_P2;Temp;Humidity;BMP_temperature;BMP_pressure;BME280_temperature;BME280_humidity;BME280_pressure;Samples;Min_cycle;Max_cycle;Signal;HPM_P1;HPM_P2
2021/06/20 00:00:58;;;;;;;46.28;38.95;;;;;;;;;;4991051;28;20699;-75
2021/06/20 00:03:23;;;;;;;49.97;40.20;;;;;;;;;;5003639;28;20206;-74
2021/06/20 00:05:53;;;;;;;54.33;41.20;;;;;;;;;;5007553;28;20191;-75
2021/06/20 00:08:18;;;;;;;56.05;42.40;;;;;;;;;;5006582;28;20190;-74
2021/06/20 00:10:44;;;;;;;58.13;42.70;;;;;;;;;;5008227;28;20334;-74
2021/06/20 00:13:10;;;;;;;54.20;42.38;;;;;;;;;;5006421;28;20185;-74
2021/06/20 00:15:37;;;;;;;58.78;44.03;;;;;;;;;;5026232;28;20193;-76
2021/06/20 00:18:03;;;;;;;55.63;44.85;;;;;;;;;;4999992;28;20487;-73
2021/06/20 00:20:32;;;;;;;61.42;45.65;;;;;;;;;;5009281;28;20705;-74
2021/06/20 00:22:58;;;;;;;54.08;45.78;;;;;;;;;;5003479;28;20194;-75
2021/06/20 00:25:25;;;;;;;59.13;47.78;;;;;;;;;;5008259;28;20865;-75
2021/06/20 00:27:52;;;;;;;56.75;43.63;;;;;;;;;;5003209;28;20277;-72
2021/06/20 00:30:20;;;;;;;59.25;46.58;;;;;;;;;;5007601;28;20634;-72
2021/06/20 00:32:47;;;;;;;59.90;46.55;;;;;;;;;;5002458;28;20190;-72
2021/06/20 00:35:14;;;;;;;56.20;45.35;;;;;;;;;;5005890;28;20193;-70
2021/06/20 00:37:39;;;;;;;62.10;46.10;;;;;;;;;;5009114;28;20245;-72
2021/06/20 00:40:06;;;;;;;59.45;46.60;;;;;;;;;;5003900;28;20202;-71
2021/06/20 00:42:33;;;;;;;58.53;45.53;;;;;;;;;;5010994;28;20193;-71
2021/06/20 00:44:58;;;;;;;62.40;48.40;;;;;;;;;;5007167;28;20193;-69
2021/06/20 00:47:24;;;;;;;64.10;47.45;;;;;;;;;;5009810;28;20560;-70
2021/06/20 00:49:49;;;;;;;58.55;47.22;;;;;;;;;;4999743;28;20185;-69
2021/06/20 00:52:15;;;;;;;59.90;47.05;;;;;;;;;;5006137;28;20199;-69
2021/06/20 00:54:48;;;;;;;55.72;43.90;;;;;;;;;;5006845;28;20270;-69
2021/06/20 00:57:18;;;;;;;58.55;47.08;;;;;;;;;;5009141;28;20187;-69
2021/06/20 00:59:44;;;;;;;57.90;44.85;;;;;;;;;;4997469;28;20191;-70
2021/06/20 01:02:12;;;;;;;64.80;47.65;;;;;;;;;;5009435;28;20209;-69
2021/06/20 01:04:38;;;;;;;61.17;47.00;;;;;;;;;;5002543;28;20210;-70
2021/06/20 01:07:03;;;;;;;62.45;46.58;;;;;;;;;;5008975;28;20191;-70
2021/06/20 01:09:29;;;;;;;65.85;50.15;;;;;;;;;;5006812;28;20185;-71
2021/06/20 01:11:54;;;;;;;61.72;46.72;;;;;;;;;;5009592;28;20273;-71
2021/06/20 01:14:20;;;;;;;63.35;48.42;;;;;;;;;;5013242;28;20583;-72
2021/06/20 01:16:46;;;;;;;62.88;48.33;;;;;;;;;;4999896;28;20183;-70
2021/06/20 01:19:11;;;;;;;68.03;49.17;;;;;;;;;;5005050;28;20186;-73
2021/06/20 01:21:38;;;;;;;64.60;49.60;;;;;;;;;;4996601;28;20281;-73
2021/06/20 01:24:04;;;;;;;68.45;49.13;;;;;;;;;;5007367;28;20182;-71
2021/06/20 01:26:32;;;;;;;64.40;48.45;;;;;;;;;;4998401;28;20661;-72
2021/06/20 01:29:05;;;;;;;54.13;45.20;;;;;;;;;;5003807;28;20660;-71
2021/06/20 01:31:35;;;;;;;69.00;50.17;;;;;;;;;;4998969;28;20179;-71
2021/06/20 01:34:01;;;;;;;62.75;48.50;;;;;;;;;;5009435;28;20175;-71
2021/06/20 01:36:26;;;;;;;62.67;48.95;;;;;;;;;;4999255;28;20523;-71
2021/06/20 01:38:51;;;;;;;62.05;44.88;;;;;;;;;;5007050;28;20190;-70
2021/06/20 01:41:17;;;;;;;64.55;49.20;;;;;;;;;;4998224;28;20207;-70
2021/06/20 01:43:42;;;;;;;60.97;47.08;;;;;;;;;;5010834;28;20710;-69
2021/06/20 01:46:07;;;;;;;65.57;48.83;;;;;;;;;;5000075;28;20202;-71
2021/06/20 01:48:34;;;;;;;66.78;50.20;;;;;;;;;;5003791;28;20785;-71
2021/06/20 01:50:59;;;;;;;62.58;48.17;;;;;;;;;;5006162;28;20193;-71
2021/06/20 01:53:24;;;;;;;60.50;47.75;;;;;;;;;;4999281;28;20187;-70
2021/06/20 01:55:50;;;;;;;64.38;49.03;;;;;;;;;;5008728;28;20194;-72
2021/06/20 01:58:17;;;;;;;63.65;47.78;;;;;;;;;;5017706;28;20199;-72
2021/06/20 02:00:46;;;;;;;66.82;49.15;;;;;;;;;;5006089;28;20221;-69
2021/06/20 02:03:15;;;;;;;64.38;47.20;;;;;;;;;;4991909;28;20191;-70
2021/06/20 02:05:44;;;;;;;65.53;48.78;;;;;;;;;;5005486;28;20191;-71
2021/06/20 02:08:11;;;;;;;64.35;48.03;;;;;;;;;;5015389;28;20186;-70
2021/06/20 02:10:37;;;;;;;68.88;48.25;;;;;;;;;;5003721;28;20290;-70
2021/06/20 02:13:03;;;;;;;65.78;47.58;;;;;;;;;;5004672;28;20183;-70
2021/06/20 02:15:30;;;;;;;64.63;48.75;;;;;;;;;;5004451;28;20205;-69
2021/06/20 02:17:55;;;;;;;60.58;47.42;;;;;;;;;;5005979;28;20182;-69
2021/06/20 02:20:21;;;;;;;66.95;48.88;;;;;;;;;;5005507;28;20218;-72
2021/06/20 02:22:48;;;;;;;63.63;47.95;;;;;;;;;;5004105;28;20182;-69
2021/06/20 02:25:15;;;;;;;64.88;45.67;;;;;;;;;;4992608;28;20180;-69
2021/06/20 02:27:42;;;;;;;60.53;46.63;;;;;;;;;;5005042;28;20179;-70
2021/06/20 02:30:09;;;;;;;59.00;43.53;;;;;;;;;;5012829;28;20182;-69
2021/06/20 02:32:35;;;;;;;54.10;41.22;;;;;;;;;;5006971;28;20729;-68
2021/06/20 02:35:02;;;;;;;60.85;44.50;;;;;;;;;;4997490;28;20186;-68
2021/06/20 02:37:27;;;;;;;56.17;42.55;;;;;;;;;;5006457;28;20182;-69
2021/06/20 02:39:54;;;;;;;62.85;45.35;;;;;;;;;;4998631;28;20205;-70
2021/06/20 02:42:19;;;;;;;61.60;43.95;;;;;;;;;;5005005;28;20190;-69
2021/06/20 02:44:45;;;;;;;59.15;43.53;;;;;;;;;;4997933;28;22473;-70
2021/06/20 02:47:11;;;;;;;62.30;43.55;;;;;;;;;;5012867;28;20229;-70
2021/06/20 02:49:38;;;;;;;60.28;44.08;;;;;;;;;;5005079;28;20423;-69
2021/06/20 02:52:06;;;;;;;59.88;44.55;;;;;;;;;;5007936;28;20535;-69
2021/06/20 02:54:32;;;;;;;55.05;41.15;;;;;;;;;;5007701;28;20199;-69
2021/06/20 02:56:58;;;;;;;49.95;38.42;;;;;;;;;;4998914;28;20186;-69
2021/06/20 02:59:24;;;;;;;52.47;39.95;;;;;;;;;;5006239;28;20194;-69
2021/06/20 03:01:50;;;;;;;47.40;36.72;;;;;;;;;;4998518;28;20762;-69
2021/06/20 03:04:15;;;;;;;48.55;36.10;;;;;;;;;;5004439;28;20211;-69
2021/06/20 03:06:41;;;;;;;46.70;36.10;;;;;;;;;;4997973;28;20205;-68
2021/06/20 03:09:06;;;;;;;45.78;34.20;;;;;;;;;;5005786;28;20193;-68
2021/06/20 03:11:35;;;;;;;39.42;32.53;;;;;;;;;;4998432;28;20182;-68
2021/06/20 03:14:00;;;;;;;45.13;31.83;;;;;;;;;;4997217;28;20194;-68
2021/06/20 03:16:26;;;;;;;35.60;27.88;;;;;;;;;;4991679;28;20651;-67
2021/06/20 03:18:51;;;;;;;33.08;27.27;;;;;;;;;;5004780;28;20193;-67
2021/06/20 03:21:17;;;;;;;28.50;23.92;;;;;;;;;;4992454;28;20208;-67
2021/06/20 03:23:44;;;;;;;28.00;23.40;;;;;;;;;;5000545;28;20193;-66
2021/06/20 03:26:10;;;;;;;30.23;22.10;;;;;;;;;;4997435;28;20195;-67
2021/06/20 03:28:35;;;;;;;24.42;19.10;;;;;;;;;;4994823;28;20209;-66
2021/06/20 03:31:00;;;;;;;23.73;19.23;;;;;;;;;;5005267;28;20185;-66
2021/06/20 03:33:26;;;;;;;25.75;19.60;;;;;;;;;;4995038;28;20182;-66
2021/06/20 03:35:51;;;;;;;21.30;19.00;;;;;;;;;;5002025;28;20587;-66
2021/06/20 03:38:16;;;;;;;17.45;15.52;;;;;;;;;;4997307;28;20784;-67
2021/06/20 03:40:42;;;;;;;15.27;12.40;;;;;;;;;;5001036;28;20248;-67
2021/06/20 03:43:07;;;;;;;12.93;11.52;;;;;;;;;;4992159;28;20194;-68
2021/06/20 03:45:33;;;;;;;13.10;10.95;;;;;;;;;;4998977;28;20187;-69
2021/06/20 03:47:58;;;;;;;13.77;10.13;;;;;;;;;;4998143;28;20606;-69
2021/06/20 03:50:25;;;;;;;11.77;10.05;;;;;;;;;;5004860;28;20293;-69
2021/06/20 03:52:50;;;;;;;14.82;11.25;;;;;;;;;;5001084;28;20178;-69
2021/06/20 03:55:16;;;;;;;12.18;9.48;;;;;;;;;;5003275;28;20313;-69
2021/06/20 03:57:41;;;;;;;16.27;10.73;;;;;;;;;;4999900;28;20220;-68
2021/06/20 04:00:09;;;;;;;11.95;10.32;;;;;;;;;;4994804;28;20627;-69
2021/06/20 04:02:37;;;;;;;12.60;10.27;;;;;;;;;;5009138;28;20183;-69
2021/06/20 04:05:03;;;;;;;19.38;11.50;;;;;;;;;;4995612;28;20187;-69
2021/06/20 04:07:29;;;;;;;14.35;11.00;;;;;;;;;;5004519;28;20183;-69
2021/06/20 04:09:54;;;;;;;11.18;10.07;;;;;;;;;;4994825;28;20197;-67
2021/06/20 04:12:19;;;;;;;12.02;9.23;;;;;;;;;;5001537;28;20744;-69
2021/06/20 04:14:45;;;;;;;16.75;10.27;;;;;;;;;;4994110;28;20220;-69
2021/06/20 04:17:11;;;;;;;14.10;10.30;;;;;;;;;;4306986;28;10000807;-69
2021/06/20 04:19:37;;;;;;;10.88;9.10;;;;;;;;;;4988362;28;20277;-68
2021/06/20 04:22:02;;;;;;;13.55;9.45;;;;;;;;;;5000810;28;20201;-70
2021/06/20 04:24:28;;;;;;;12.85;10.27;;;;;;;;;;4990237;28;20498;-69
2021/06/20 04:26:53;;;;;;;13.55;10.43;;;;;;;;;;4998380;28;20246;-70
2021/06/20 04:29:19;;;;;;;15.48;11.07;;;;;;;;;;4999474;28;20194;-69
2021/06/20 04:31:44;;;;;;;13.90;10.85;;;;;;;;;;4991562;28;20197;-68
2021/06/20 04:34:10;;;;;;;19.67;12.70;;;;;;;;;;5000474;28;20179;-69
2021/06/20 04:36:36;;;;;;;17.48;10.07;;;;;;;;;;4997665;28;20552;-68
2021/06/20 04:39:04;;;;;;;12.98;9.35;;;;;;;;;;4995250;28;20583;-68
2021/06/20 04:41:30;;;;;;;11.82;10.40;;;;;;;;;;4993718;28;20212;-68
2021/06/20 04:43:58;;;;;;;15.07;11.40;;;;;;;;;;5002527;28;20187;-70
2021/06/20 04:46:28;;;;;;;19.90;11.93;;;;;;;;;;4992290;28;20313;-69
2021/06/20 04:48:56;;;;;;;15.85;10.32;;;;;;;;;;4997276;28;20223;-69
2021/06/20 04:51:21;;;;;;;21.15;12.48;;;;;;;;;;4995157;28;20202;-69
2021/06/20 04:53:48;;;;;;;18.20;12.07;;;;;;;;;;5005164;28;20198;-70
2021/06/20 04:56:13;;;;;;;13.30;11.85;;;;;;;;;;4995933;28;20194;-69
2021/06/20 04:58:40;;;;;;;14.18;12.13;;;;;;;;;;4998564;28;20245;-69
2021/06/20 05:01:06;;;;;;;19.85;13.75;;;;;;;;;;4993501;28;20222;-69
2021/06/20 05:03:31;;;;;;;21.80;15.32;;;;;;;;;;5000740;28;20280;-68
2021/06/20 05:05:56;;;;;;;20.50;16.33;;;;;;;;;;5004910;28;20642;-67
2021/06/20 05:08:22;;;;;;;26.30;18.92;;;;;;;;;;4991891;28;20705;-68
2021/06/20 05:10:48;;;;;;;29.63;21.45;;;;;;;;;;5004299;28;20640;-69
2021/06/20 05:13:13;;;;;;;32.60;21.30;;;;;;;;;;4992363;28;20205;-68
2021/06/20 05:15:38;;;;;;;33.33;23.58;;;;;;;;;;4999998;28;20528;-68
2021/06/20 05:18:04;;;;;;;29.58;24.13;;;;;;;;;;4989460;28;20598;-69
2021/06/20 05:20:29;;;;;;;31.88;23.45;;;;;;;;;;5003642;28;20280;-68
2021/06/20 05:22:54;;;;;;;35.63;27.33;;;;;;;;;;4995687;28;20193;-69
2021/06/20 05:25:20;;;;;;;36.70;29.35;;;;;;;;;;5000786;28;21805;-68
2021/06/20 05:27:45;;;;;;;38.83;29.92;;;;;;;;;;4995483;28;20194;-68
2021/06/20 05:30:11;;;;;;;41.20;29.25;;;;;;;;;;4998287;28;20734;-68
2021/06/20 05:32:37;;;;;;;35.47;27.80;;;;;;;;;;4997890;28;20210;-69
2021/06/20 05:35:02;;;;;;;41.08;28.88;;;;;;;;;;4994667;28;20574;-71
2021/06/20 05:37:28;;;;;;;33.53;25.50;;;;;;;;;;4996794;28;20194;-68
2021/06/20 05:39:53;;;;;;;37.22;29.48;;;;;;;;;;4989539;28;20655;-69
2021/06/20 05:42:19;;;;;;;39.75;28.00;;;;;;;;;;4997460;28;20706;-69
2021/06/20 05:44:44;;;;;;;38.17;28.77;;;;;;;;;;4992788;28;20682;-69
2021/06/20 05:47:09;;;;;;;40.90;30.73;;;;;;;;;;4997402;28;20651;-70
2021/06/20 05:49:35;;;;;;;43.08;31.98;;;;;;;;;;4993661;28;20222;-68
2021/06/20 05:52:00;;;;;;;45.00;32.65;;;;;;;;;;5003566;28;20237;-69
2021/06/20 05:54:25;;;;;;;45.83;31.77;;;;;;;;;;4993695;28;20205;-68
2021/06/20 05:56:51;;;;;;;43.08;33.00;;;;;;;;;;5003935;28;20233;-69
2021/06/20 05:59:16;;;;;;;46.30;33.28;;;;;;;;;;4996579;28;21495;-68
2021/06/20 06:01:41;;;;;;;45.15;32.47;;;;;;;;;;5001328;28;20715;-68
2021/06/20 06:04:07;;;;;;;42.20;32.67;;;;;;;;;;5001950;28;20854;-67
2021/06/20 06:06:33;;;;;;;44.00;31.83;;;;;;;;;;4991463;28;20215;-69
2021/06/20 06:08:58;;;;;;;47.78;35.47;;;;;;;;;;4997251;28;20199;-68
2021/06/20 06:11:24;;;;;;;50.72;34.97;;;;;;;;;;4993928;28;20191;-71
2021/06/20 06:13:49;;;;;;;53.03;34.65;;;;;;;;;;5003943;28;20201;-68
2021/06/20 06:16:15;;;;;;;52.67;36.60;;;;;;;;;;4995838;28;20716;-70
2021/06/20 06:18:40;;;;;;;50.13;36.38;;;;;;;;;;5002114;28;20747;-70
2021/06/20 06:21:06;;;;;;;54.78;37.03;;;;;;;;;;4993921;28;20263;-68
2021/06/20 06:23:31;;;;;;;50.90;36.55;;;;;;;;;;5005564;28;20575;-69
2021/06/20 06:25:57;;;;;;;53.03;36.80;;;;;;;;;;4995375;28;20549;-67
2021/06/20 06:28:22;;;;;;;52.45;38.75;;;;;;;;;;4999582;28;20245;-68
2021/06/20 06:30:47;;;;;;;49.88;35.45;;;;;;;;;;4996371;28;20174;-67
2021/06/20 06:33:13;;;;;;;50.65;36.53;;;;;;;;;;5002661;28;20190;-70
2021/06/20 06:35:39;;;;;;;55.83;38.58;;;;;;;;;;5006482;28;20179;-68
2021/06/20 06:38:05;;;;;;;55.65;37.60;;;;;;;;;;4995869;28;20187;-68
2021/06/20 06:40:30;;;;;;;50.42;35.80;;;;;;;;;;5004868;28;20219;-69
2021/06/20 06:42:57;;;;;;;46.40;32.85;;;;;;;;;;4991378;28;20290;-72
2021/06/20 06:45:22;;;;;;;48.78;36.25;;;;;;;;;;5003945;28;20182;-68
2021/06/20 06:47:47;;;;;;;49.60;35.30;;;;;;;;;;4989485;28;20226;-68
2021/06/20 06:50:13;;;;;;;48.40;34.85;;;;;;;;;;5002608;28;20189;-67
2021/06/20 06:52:38;;;;;;;42.17;32.20;;;;;;;;;;4989945;28;20371;-70
2021/06/20 06:55:05;;;;;;;44.20;33.47;;;;;;;;;;4999009;28;20183;-68
2021/06/20 06:57:31;;;;;;;45.75;33.17;;;;;;;;;;4997841;28;20187;-69
2021/06/20 06:59:57;;;;;;;47.47;34.42;;;;;;;;;;5001736;28;20175;-69
2021/06/20 07:02:23;;;;;;;47.83;34.13;;;;;;;;;;4993815;28;20195;-70
2021/06/20 07:04:49;;;;;;;46.92;32.75;;;;;;;;;;5014842;28;20241;-68
2021/06/20 07:07:15;;;;;;;45.63;32.90;;;;;;;;;;4998095;28;20215;-69
2021/06/20 07:09:40;;;;;;;42.92;31.40;;;;;;;;;;4990458;28;20190;-71
2021/06/20 07:12:06;;;;;;;43.17;31.42;;;;;;;;;;5006286;28;20187;-71
2021/06/20 07:14:34;;;;;;;44.38;33.60;;;;;;;;;;5013922;28;20662;-69
2021/06/20 07:17:09;;;;;;;44.45;32.53;;;;;;;;;;4997013;28;20190;-68
2021/06/20 07:19:34;;;;;;;45.42;31.75;;;;;;;;;;4992281;28;20273;-70
2021/06/20 07:22:00;;;;;;;45.42;34.13;;;;;;;;;;5005012;28;20294;-69
2021/06/20 07:24:26;;;;;;;44.15;32.47;;;;;;;;;;4996351;28;20197;-70
2021/06/20 07:26:51;;;;;;;47.72;33.13;;;;;;;;;;5004284;28;20186;-70
2021/06/20 07:29:16;;;;;;;44.28;31.63;;;;;;;;;;4996291;28;20191;-71
2021/06/20 07:31:42;;;;;;;44.33;31.35;;;;;;;;;;5003777;28;20187;-69
2021/06/20 07:34:07;;;;;;;40.08;29.88;;;;;;;;;;4999424;28;20196;-69
2021/06/20 07:36:33;;;;;;;40.35;30.25;;;;;;;;;;4999646;28;20643;-68
2021/06/20 07:38:58;;;;;;;40.42;31.23;;;;;;;;;;4992487;28;20190;-71
2021/06/20 07:41:25;;;;;;;39.65;29.67;;;;;;;;;;4992638;28;20235;-70
2021/06/20 07:43:51;;;;;;;41.30;30.30;;;;;;;;;;4992371;28;20225;-71
2021/06/20 07:46:16;;;;;;;39.95;30.23;;;;;;;;;;4990178;28;20201;-73
2021/06/20 07:48:42;;;;;;;39.50;29.38;;;;;;;;;;5000638;28;20227;-69
2021/06/20 07:51:07;;;;;;;38.70;28.48;;;;;;;;;;4989446;28;20179;-69
2021/06/20 07:53:32;;;;;;;35.33;26.85;;;;;;;;;;4997641;28;20229;-68
2021/06/20 07:55:58;;;;;;;34.85;26.98;;;;;;;;;;4992449;28;20534;-70
2021/06/20 07:58:23;;;;;;;34.65;25.50;;;;;;;;;;4996488;28;21030;-68
2021/06/20 08:00:49;;;;;;;30.55;22.35;;;;;;;;;;4989396;28;20614;-72
2021/06/20 08:03:14;;;;;;;30.58;22.80;;;;;;;;;;4993917;28;20179;-70
2021/06/20 08:05:39;;;;;;;30.83;24.10;;;;;;;;;;4990275;28;20194;-67
2021/06/20 08:08:05;;;;;;;30.30;22.77;;;;;;;;;;4994977;28;20192;-68
2021/06/20 08:10:30;;;;;;;29.85;23.05;;;;;;;;;;4994080;28;20533;-69
2021/06/20 08:12:55;;;;;;;33.30;23.58;;;;;;;;;;4986911;28;20277;-68
2021/06/20 08:15:21;;;;;;;33.20;24.30;;;;;;;;;;4994325;28;20240;-72
2021/06/20 08:17:46;;;;;;;34.33;25.05;;;;;;;;;;4994236;28;20210;-69
2021/06/20 08:20:13;;;;;;;31.55;25.27;;;;;;;;;;5001068;28;20731;-71
2021/06/20 08:22:40;;;;;;;33.58;25.45;;;;;;;;;;4990802;28;20685;-69
2021/06/20 08:25:07;;;;;;;32.35;24.80;;;;;;;;;;4990798;28;20638;-69
2021/06/20 08:27:33;;;;;;;30.33;24.38;;;;;;;;;;4991587;28;20230;-71
2021/06/20 08:29:59;;;;;;;33.42;25.17;;;;;;;;;;4998827;28;20219;-68
2021/06/20 08:32:25;;;;;;;32.45;25.60;;;;;;;;;;4990855;28;20273;-69
2021/06/20 08:34:51;;;;;;;34.83;24.45;;;;;;;;;;5001296;28;20588;-68
2021/06/20 08:37:17;;;;;;;33.05;24.30;;;;;;;;;;4994323;28;20277;-72
2021/06/20 08:39:42;;;;;;;31.45;24.98;;;;;;;;;;4999695;28;20278;-73
2021/06/20 08:42:08;;;;;;;32.88;26.23;;;;;;;;;;5004215;28;20677;-70
2021/06/20 08:44:33;;;;;;;33.70;25.33;;;;;;;;;;5000540;28;20241;-69
2021/06/20 08:47:01;;;;;;;31.30;24.45;;;;;;;;;;5004233;28;20596;-68
2021/06/20 08:49:27;;;;;;;36.60;25.05;;;;;;;;;;4995754;28;20241;-71
2021/06/20 08:51:55;;;;;;;35.65;25.77;;;;;;;;;;4998880;28;20640;-71
2021/06/20 08:54:20;;;;;;;37.15;25.52;;;;;;;;;;4994651;28;20862;-69
2021/06/20 08:56:48;;;;;;;36.03;25.52;;;;;;;;;;5000833;28;20194;-69
2021/06/20 08:59:15;;;;;;;35.55;27.30;;;;;;;;;;4988091;28;20219;-69
2021/06/20 09:01:41;;;;;;;33.92;25.30;;;;;;;;;;5002082;28;20303;-71
2021/06/20 09:04:07;;;;;;;36.13;26.75;;;;;;;;;;5013155;28;20195;-69
2021/06/20 09:06:33;;;;;;;39.47;27.98;;;;;;;;;;5000319;28;20202;-67
2021/06/20 09:09:00;;;;;;;36.92;28.05;;;;;;;;;;4995610;28;20178;-68
2021/06/20 09:11:30;;;;;;;36.45;27.75;;;;;;;;;;4998203;28;21492;-68
2021/06/20 09:14:03;;;;;;;35.33;25.70;;;;;;;;;;5006975;28;20186;-68
2021/06/20 09:16:29;;;;;;;32.50;26.00;;;;;;;;;;5000641;28;20265;-70
2021/06/20 09:18:55;;;;;;;32.60;25.17;;;;;;;;;;5004046;28;20186;-68
2021/06/20 09:21:25;;;;;;;33.33;25.80;;;;;;;;;;4999320;28;20213;-68
2021/06/20 09:23:52;;;;;;;30.08;24.17;;;;;;;;;;5005412;28;20349;-68
2021/06/20 09:26:30;;;;;;;29.33;23.13;;;;;;;;;;4995170;28;20197;-68
2021/06/20 09:28:56;;;;;;;30.90;24.48;;;;;;;;;;5003133;28;20178;-67
2021/06/20 09:31:21;;;;;;;26.45;22.02;;;;;;;;;;4996770;28;20193;-68
2021/06/20 09:33:48;;;;;;;29.92;22.80;;;;;;;;;;5000245;28;20201;-68
2021/06/20 09:36:13;;;;;;;25.52;22.05;;;;;;;;;;4994401;28;20269;-70
2021/06/20 09:38:39;;;;;;;30.48;22.48;;;;;;;;;;5003614;28;20270;-68
2021/06/20 09:41:14;;;;;;;24.40;21.00;;;;;;;;;;4305601;28;10021526;-72
2021/06/20 09:43:54;;;;;;;29.05;21.10;;;;;;;;;;4998331;28;20212;-68
2021/06/20 09:46:20;;;;;;;22.42;18.45;;;;;;;;;;4996278;28;20273;-68
2021/06/20 09:48:46;;;;;;;22.48;18.30;;;;;;;;;;4994569;28;20234;-68
2021/06/20 09:51:19;;;;;;;23.00;17.77;;;;;;;;;;4990917;28;20249;-74
2021/06/20 09:53:47;;;;;;;23.60;17.65;;;;;;;;;;4996269;28;20669;-67
2021/06/20 09:56:24;;;;;;;22.73;18.85;;;;;;;;;;4993700;28;20179;-69
2021/06/20 09:58:58;;;;;;;24.98;19.35;;;;;;;;;;5001466;28;20209;-69
2021/06/20 10:01:25;;;;;;;22.15;17.63;;;;;;;;;;5002955;28;20452;-69
2021/06/20 10:03:50;;;;;;;20.83;16.55;;;;;;;;;;4995043;28;20209;-73
2021/06/20 10:06:17;;;;;;;19.77;16.90;;;;;;;;;;5002581;28;20198;-71
2021/06/20 10:08:43;;;;;;;22.88;17.80;;;;;;;;;;4994053;28;20183;-68
2021/06/20 10:11:10;;;;;;;21.23;17.20;;;;;;;;;;5002997;28;20592;-67
2021/06/20 10:13:35;;;;;;;20.80;17.85;;;;;;;;;;4992197;28;20191;-68
2021/06/20 10:16:22;;;;;;;20.15;16.52;;;;;;;;;;5001764;28;20264;-68
2021/06/20 10:18:55;;;;;;;19.23;16.33;;;;;;;;;;4990999;28;20198;-74
2021/06/20 10:21:37;;;;;;;20.38;15.70;;;;;;;;;;5003311;28;20211;-71
2021/06/20 10:24:12;;;;;;;23.88;17.70;;;;;;;;;;4988618;28;20791;-70
2021/06/20 10:26:41;;;;;;;20.67;17.30;;;;;;;;;;4995729;28;20655;-68
2021/06/20 10:29:21;;;;;;;23.13;18.63;;;;;;;;;;4987161;28;20220;-68
2021/06/20 10:31:49;;;;;;;22.90;17.42;;;;;;;;;;4995458;28;20366;-67
2021/06/20 10:34:17;;;;;;;25.98;17.85;;;;;;;;;;4989658;28;20190;-69
2021/06/20 10:36:48;;;;;;;20.95;16.67;;;;;;;;;;4993953;28;20218;-68
2021/06/20 10:39:13;;;;;;;21.73;17.27;;;;;;;;;;4990329;28;20595;-67
2021/06/20 10:41:39;;;;;;;22.02;16.45;;;;;;;;;;4998506;28;20297;-67
2021/06/20 10:44:05;;;;;;;20.92;17.05;;;;;;;;;;4990850;28;20195;-69
2021/06/20 10:46:31;;;;;;;20.38;17.05;;;;;;;;;;5000678;28;20586;-71
2021/06/20 10:48:58;;;;;;;22.13;17.60;;;;;;;;;;4987596;28;20235;-68
2021/06/20 10:51:24;;;;;;;21.05;16.00;;;;;;;;;;4999382;28;20181;-68
2021/06/20 10:53:51;;;;;;;19.60;15.55;;;;;;;;;;4998099;28;20182;-66
2021/06/20 10:56:25;;;;;;;22.10;16.63;;;;;;;;;;4992419;28;20195;-69
2021/06/20 10:58:52;;;;;;;21.98;15.43;;;;;;;;;;4995951;28;20187;-67
2021/06/20 11:01:19;;;;;;;21.38;16.10;;;;;;;;;;4990348;28;20237;-66
2021/06/20 11:03:50;;;;;;;20.58;15.93;;;;;;;;;;4998676;28;20194;-69
2021/06/20 11:06:18;;;;;;;22.30;16.85;;;;;;;;;;4650355;28;10000138;-68
2021/06/20 11:08:52;;;;;;;21.92;15.23;;;;;;;;;;4999333;28;20593;-68
2021/06/20 11:11:24;;;;;;;19.20;12.80;;;;;;;;;;4995106;28;20617;-66
2021/06/20 11:13:55;;;;;;;14.13;11.15;;;;;;;;;;5004001;28;20646;-74
2021/06/20 11:16:41;;;;;;;14.50;11.23;;;;;;;;;;4993564;28;20632;-70
2021/06/20 11:19:16;;;;;;;18.70;11.32;;;;;;;;;;4999299;28;20217;-69
2021/06/20 11:21:41;;;;;;;19.67;12.90;;;;;;;;;;4992941;28;20693;-67
2021/06/20 11:24:08;;;;;;;17.60;12.82;;;;;;;;;;4995787;28;20195;-68
2021/06/20 11:26:33;;;;;;;15.00;12.27;;;;;;;;;;4994972;28;20253;-69
2021/06/20 11:29:03;;;;;;;14.02;11.15;;;;;;;;;;4998667;28;20266;-72
2021/06/20 11:31:29;;;;;;;13.50;10.02;;;;;;;;;;4994086;28;20723;-70
2021/06/20 11:33:56;;;;;;;11.63;8.80;;;;;;;;;;5001291;28;20190;-71
2021/06/20 11:36:25;;;;;;;11.70;8.95;;;;;;;;;;4997386;28;20195;-72
2021/06/20 11:38:50;;;;;;;8.65;7.60;;;;;;;;;;4995234;28;20194;-71
2021/06/20 11:41:21;;;;;;;9.18;7.47;;;;;;;;;;4994400;28;20215;-71
2021/06/20 11:44:03;;;;;;;10.13;7.93;;;;;;;;;;4991405;28;21045;-69
2021/06/20 11:46:31;;;;;;;7.70;6.90;;;;;;;;;;4998724;28;20186;-72
2021/06/20 11:49:00;;;;;;;8.95;7.80;;;;;;;;;;4994637;28;20265;-69
2021/06/20 11:51:40;;;;;;;9.05;8.00;;;;;;;;;;5000534;28;20522;-72
2021/06/20 11:54:11;;;;;;;11.23;9.18;;;;;;;;;;4987764;28;20211;-73
2021/06/20 11:56:38;;;;;;;10.65;7.88;;;;;;;;;;4996212;28;20202;-69
2021/06/20 11:59:04;;;;;;;10.65;8.38;;;;;;;;;;4990009;28;20213;-68
2021/06/20 12:01:46;;;;;;;10.48;7.80;;;;;;;;;;4994737;28;20214;-73
2021/06/20 12:04:15;;;;;;;10.88;8.20;;;;;;;;;;4991496;28;20226;-69
2021/06/20 12:06:40;;;;;;;10.07;7.93;;;;;;;;;;4997205;28;20319;-72
2021/06/20 12:09:07;;;;;;;8.70;7.35;;;;;;;;;;4636970;28;10000541;-69
2021/06/20 12:11:34;;;;;;;9.50;7.15;;;;;;;;;;4992943;28;20187;-69
2021/06/20 12:14:00;;;;;;;8.55;7.00;;;;;;;;;;4988120;28;20241;-71
2021/06/20 12:16:25;;;;;;;8.90;6.82;;;;;;;;;;4999500;28;20236;-70
2021/06/20 12:18:51;;;;;;;8.75;7.40;;;;;;;;;;4988345;28;20194;-69
2021/06/20 12:21:29;;;;;;;9.07;7.57;;;;;;;;;;4995173;28;20305;-74
2021/06/20 12:23:58;;;;;;;8.38;7.05;;;;;;;;;;4989487;28;20186;-69
2021/06/20 12:26:28;;;;;;;9.88;7.15;;;;;;;;;;4997724;28;20859;-73
2021/06/20 12:28:54;;;;;;;7.82;5.70;;;;;;;;;;4997260;28;20190;-69
2021/06/20 12:31:20;;;;;;;8.55;6.72;;;;;;;;;;4985034;28;20639;-70
2021/06/20 12:33:45;;;;;;;7.93;6.68;;;;;;;;;;4991797;28;20845;-71
2021/06/20 12:36:11;;;;;;;8.50;6.60;;;;;;;;;;4986261;28;20195;-69
2021/06/20 12:38:38;;;;;;;8.65;7.03;;;;;;;;;;4999362;28;20187;-70
2021/06/20 12:41:15;;;;;;;8.32;6.75;;;;;;;;;;4989472;28;20294;-69
2021/06/20 12:43:41;;;;;;;7.40;6.53;;;;;;;;;;5006091;28;20182;-73
2021/06/20 12:46:09;;;;;;;7.10;5.75;;;;;;;;;;4990864;28;20191;-72
2021/06/20 12:48:40;;;;;;;7.00;6.30;;;;;;;;;;4996101;28;20232;-72
2021/06/20 12:51:09;;;;;;;6.07;5.47;;;;;;;;;;4989408;28;20233;-71
2021/06/20 12:53:39;;;;;;;5.60;4.95;;;;;;;;;;5001003;28;20187;-71
2021/06/20 12:56:06;;;;;;;8.57;5.95;;;;;;;;;;4989162;28;20191;-70
2021/06/20 12:58:33;;;;;;;6.05;5.43;;;;;;;;;;4999003;28;20661;-69
2021/06/20 13:01:01;;;;;;;6.05;5.45;;;;;;;;;;4991127;28;20222;-69
2021/06/20 13:03:28;;;;;;;6.28;5.50;;;;;;;;;;4995765;28;20229;-73
2021/06/20 13:05:54;;;;;;;5.55;5.00;;;;;;;;;;5010988;28;20508;-69
2021/06/20 13:08:28;;;;;;;5.63;5.03;;;;;;;;;;4983265;28;20218;-73
2021/06/20 13:10:54;;;;;;;5.65;4.72;;;;;;;;;;4993214;28;20178;-70
2021/06/20 13:13:19;;;;;;;5.47;4.60;;;;;;;;;;4989219;28;20206;-71
2021/06/20 13:15:45;;;;;;;6.07;5.47;;;;;;;;;;4993099;28;20191;-68
2021/06/20 13:18:10;;;;;;;6.22;5.22;;;;;;;;;;4992209;28;20288;-71
2021/06/20 13:20:35;;;;;;;5.80;5.25;;;;;;;;;;4996552;28;20214;-69
2021/06/20 13:23:03;;;;;;;6.70;5.47;;;;;;;;;;4986229;28;20209;-69
2021/06/20 13:25:29;;;;;;;5.68;5.10;;;;;;;;;;4998964;28;20183;-71
2021/06/20 13:27:55;;;;;;;8.30;5.53;;;;;;;;;;4992060;28;20205;-68
2021/06/20 13:30:21;;;;;;;6.00;5.40;;;;;;;;;;5000427;28;20179;-71
2021/06/20 13:32:46;;;;;;;5.75;5.15;;;;;;;;;;4993174;28;20259;-72
2021/06/20 13:35:14;;;;;;;7.28;5.65;;;;;;;;;;5002299;28;20593;-74
2021/06/20 13:37:41;;;;;;;5.70;5.13;;;;;;;;;;5001513;28;20209;-68
2021/06/20 13:40:08;;;;;;;6.55;5.50;;;;;;;;;;4990235;28;20666;-72
2021/06/20 13:42:34;;;;;;;5.65;5.15;;;;;;;;;;5018239;28;20278;-69
2021/06/20 13:45:00;;;;;;;5.82;5.05;;;;;;;;;;4994359;28;20681;-68
2021/06/20 13:47:25;;;;;;;5.85;4.72;;;;;;;;;;5001071;28;20214;-68
2021/06/20 13:49:51;;;;;;;7.25;5.30;;;;;;;;;;4990568;28;20666;-71
2021/06/20 13:52:16;;;;;;;6.68;4.63;;;;;;;;;;4999895;28;20645;-70
2021/06/20 13:54:41;;;;;;;5.30;4.80;;;;;;;;;;4996694;28;21364;-74
2021/06/20 13:57:07;;;;;;;4.85;4.43;;;;;;;;;;4998735;28;20300;-70
2021/06/20 13:59:32;;;;;;;5.53;4.70;;;;;;;;;;4993832;28;20632;-73
2021/06/20 14:01:59;;;;;;;5.70;5.10;;;;;;;;;;4997460;28;20215;-69
2021/06/20 14:04:25;;;;;;;5.63;4.95;;;;;;;;;;4992528;28;20194;-72
2021/06/20 14:06:50;;;;;;;5.50;4.85;;;;;;;;;;5001872;28;20189;-76
2021/06/20 14:09:15;;;;;;;5.13;4.38;;;;;;;;;;5000753;28;20507;-70
2021/06/20 14:11:41;;;;;;;4.78;4.38;;;;;;;;;;4988395;28;20179;-70
2021/06/20 14:14:07;;;;;;;5.97;4.68;;;;;;;;;;5001634;28;20198;-70
2021/06/20 14:16:32;;;;;;;5.72;5.00;;;;;;;;;;4646641;28;10000671;-73
2021/06/20 14:18:58;;;;;;;5.35;4.85;;;;;;;;;;4998036;28;20805;-71